createdAt,value
2023-02-14T00:00:43.849Z,26.63
2023-02-14T00:03:10.486Z,25.97
2023-02-14T00:05:37.109Z,22.47
2023-02-14T00:08:03.677Z,24.77
2023-02-14T00:10:30.221Z,26.07
2023-02-14T00:12:56.758Z,23.37
2023-02-14T00:15:23.613Z,25.87
2023-02-14T00:17:55.220Z,25.30
2023-02-14T00:20:26.015Z,23.57
2023-02-14T00:22:53.205Z,24.57
2023-02-14T00:25:19.916Z,26.43
2023-02-14T00:27:46.480Z,23.53
2023-02-14T00:30:14.003Z,23.87
2023-02-14T00:32:41.483Z,23.50
2023-02-14T00:35:09.281Z,23.87
2023-02-14T00:37:36.242Z,22.53
2023-02-14T00:40:03.459Z,25.97
2023-02-14T00:42:29.985Z,23.80
2023-02-14T00:44:56.555Z,23.30
2023-02-14T00:47:23.106Z,22.17
2023-02-14T00:49:49.649Z,22.47
2023-02-14T00:52:16.270Z,24.50
2023-02-14T00:54:42.876Z,20.47
2023-02-14T00:57:09.563Z,22.37
2023-02-14T00:59:36.199Z,22.67
2023-02-14T01:02:02.921Z,23.60
2023-02-14T01:04:29.542Z,24.73
2023-02-14T01:06:56.109Z,21.57
2023-02-14T01:09:22.717Z,26.50
2023-02-14T01:11:49.281Z,26.43
2023-02-14T01:14:16.018Z,21.90
2023-02-14T01:16:42.625Z,22.73
2023-02-14T01:19:09.331Z,23.53
2023-02-14T01:21:35.966Z,23.67
2023-02-14T01:24:05.745Z,22.37
2023-02-14T01:26:32.933Z,23.13
2023-02-14T01:28:59.562Z,24.17
2023-02-14T01:31:28.836Z,24.40
2023-02-14T01:33:56.720Z,25.33
2023-02-14T01:36:26.512Z,26.07
2023-02-14T01:38:55.494Z,22.07
2023-02-14T01:41:23.293Z,23.40
2023-02-14T01:44:02.725Z,22.87
2023-02-14T01:46:32.064Z,23.47
2023-02-14T01:49:11.954Z,22.93
2023-02-14T01:51:49.604Z,23.67
2023-02-14T01:54:18.362Z,23.20
2023-02-14T01:56:49.359Z,24.43
2023-02-14T01:59:20.809Z,23.50
2023-02-14T02:01:49.871Z,24.70
2023-02-14T02:04:22.054Z,22.30
2023-02-14T02:06:54.975Z,23.77
2023-02-14T02:09:41.694Z,25.53
2023-02-14T02:12:08.313Z,24.63
2023-02-14T02:14:35.123Z,22.87
2023-02-14T02:17:33.536Z,22.53
2023-02-14T02:20:33.852Z,25.20
2023-02-14T02:23:46.780Z,21.93
2023-02-14T02:26:34.193Z,26.93
2023-02-14T02:29:09.605Z,20.37
2023-02-14T02:31:58.455Z,22.10
2023-02-14T02:35:06.438Z,22.43
2023-02-14T02:37:41.545Z,20.50
2023-02-14T02:40:30.100Z,20.47
2023-02-14T02:43:30.225Z,22.90
2023-02-14T02:46:31.974Z,24.03
2023-02-14T02:50:03.788Z,24.10
2023-02-14T02:53:07.182Z,26.67
2023-02-14T02:56:31.086Z,25.07
2023-02-14T02:59:07.073Z,24.37
2023-02-14T03:01:39.176Z,23.93
2023-02-14T03:04:28.846Z,23.30
2023-02-14T03:06:56.208Z,21.63
2023-02-14T03:09:28.622Z,25.60
2023-02-14T03:12:19.149Z,22.63
2023-02-14T03:15:10.016Z,28.47
2023-02-14T03:17:57.759Z,25.20
2023-02-14T03:20:36.671Z,23.30
2023-02-14T03:23:27.978Z,22.23
2023-02-14T03:26:19.835Z,24.67
2023-02-14T03:29:01.955Z,22.17
2023-02-14T03:31:55.956Z,24.33
2023-02-14T03:34:46.836Z,24.70
2023-02-14T03:37:28.373Z,27.67
2023-02-14T03:40:17.586Z,24.70
2023-02-14T03:42:51.650Z,25.43
2023-02-14T03:45:27.657Z,25.23
2023-02-14T03:47:58.543Z,24.97
2023-02-14T03:50:26.833Z,25.00
2023-02-14T03:52:54.032Z,23.37
2023-02-14T03:55:34.702Z,26.77
2023-02-14T03:58:14.015Z,26.27
2023-02-14T04:00:42.238Z,27.83
2023-02-14T04:03:12.382Z,27.70
2023-02-14T04:05:43.643Z,24.57
2023-02-14T04:08:11.997Z,27.23
2023-02-14T04:10:40.063Z,26.70
2023-02-14T04:13:06.656Z,24.77
2023-02-14T04:15:33.231Z,26.03
2023-02-14T04:18:18.514Z,24.47
2023-02-14T04:20:45.116Z,26.57
2023-02-14T04:23:11.682Z,26.97
2023-02-14T04:25:40.331Z,24.17
2023-02-14T04:28:06.952Z,30.33
2023-02-14T04:30:33.532Z,27.97
2023-02-14T04:33:00.162Z,25.47
2023-02-14T04:35:26.762Z,25.27
2023-02-14T04:37:54.219Z,23.50
2023-02-14T04:40:20.999Z,23.30
2023-02-14T04:42:47.643Z,23.73
2023-02-14T04:45:14.910Z,25.33
2023-02-14T04:47:41.519Z,23.60
2023-02-14T04:50:08.539Z,23.97
2023-02-14T04:52:35.155Z,26.73
2023-02-14T04:55:01.771Z,26.20
2023-02-14T04:57:28.342Z,25.07
2023-02-14T04:59:54.908Z,25.60
2023-02-14T05:02:21.526Z,25.83
2023-02-14T05:04:49.748Z,26.07
2023-02-14T05:07:16.759Z,23.17
2023-02-14T05:09:43.352Z,25.67
2023-02-14T05:12:09.940Z,27.50
2023-02-14T05:14:36.535Z,26.17
2023-02-14T05:17:03.152Z,23.40
2023-02-14T05:19:29.782Z,25.10
2023-02-14T05:21:56.354Z,25.23
2023-02-14T05:24:23.055Z,25.83
2023-02-14T05:26:49.680Z,23.03
2023-02-14T05:29:16.255Z,26.20
2023-02-14T05:31:43.056Z,24.33
2023-02-14T05:34:09.820Z,23.73
2023-02-14T05:36:36.486Z,26.80
2023-02-14T05:39:04.164Z,26.40
2023-02-14T05:41:31.136Z,24.67
2023-02-14T05:43:57.758Z,28.87
2023-02-14T05:46:24.376Z,28.80
2023-02-14T05:48:50.953Z,26.80
2023-02-14T05:51:17.550Z,27.43
2023-02-14T05:53:44.104Z,25.43
2023-02-14T05:56:10.731Z,29.87
2023-02-14T05:58:37.324Z,24.70
2023-02-14T06:01:03.974Z,25.53
2023-02-14T06:03:30.629Z,26.47
2023-02-14T06:05:57.196Z,24.83
2023-02-14T06:08:24.026Z,26.33
2023-02-14T06:10:50.590Z,28.07
2023-02-14T06:13:17.604Z,28.47
2023-02-14T06:15:44.208Z,27.47
2023-02-14T06:18:10.872Z,28.47
2023-02-14T06:20:37.462Z,27.77
2023-02-14T06:23:04.164Z,28.70
2023-02-14T06:25:30.849Z,27.13
2023-02-14T06:27:58.894Z,31.57
2023-02-14T06:30:26.132Z,28.83
2023-02-14T06:32:53.434Z,26.30
2023-02-14T06:35:20.100Z,25.13
2023-02-14T06:37:46.654Z,28.53
2023-02-14T06:40:14.115Z,27.83
2023-02-14T06:42:41.089Z,25.17
2023-02-14T06:45:08.177Z,25.33
2023-02-14T06:47:35.311Z,24.73
2023-02-14T06:50:04.754Z,30.33
2023-02-14T06:52:32.743Z,34.23
2023-02-14T06:54:59.310Z,29.83
2023-02-14T06:57:25.892Z,27.43
2023-02-14T06:59:52.521Z,26.80
2023-02-14T07:02:19.337Z,26.23
2023-02-14T07:04:46.020Z,23.73
2023-02-14T07:07:12.631Z,24.63
2023-02-14T07:09:39.318Z,25.50
2023-02-14T07:12:06.216Z,24.30
2023-02-14T07:14:32.771Z,27.47
2023-02-14T07:16:59.352Z,28.33
2023-02-14T07:19:26.104Z,27.47
2023-02-14T07:21:52.707Z,25.40
2023-02-14T07:24:19.356Z,25.67
2023-02-14T07:26:46.157Z,29.90
2023-02-14T07:29:12.826Z,26.00
2023-02-14T07:31:39.518Z,27.40
2023-02-14T07:34:06.148Z,27.67
2023-02-14T07:36:32.798Z,25.07
2023-02-14T07:38:59.413Z,26.77
2023-02-14T07:41:25.951Z,26.27
2023-02-14T07:43:52.532Z,26.83
2023-02-14T07:46:19.150Z,25.37
2023-02-14T07:48:45.850Z,26.43
2023-02-14T07:51:12.413Z,26.87
2023-02-14T07:53:39.050Z,26.23
2023-02-14T07:56:05.925Z,37.10
2023-02-14T07:58:32.544Z,26.67
2023-02-14T08:00:59.519Z,25.80
2023-02-14T08:03:26.295Z,27.00
2023-02-14T08:05:57.178Z,29.93
2023-02-14T08:08:26.310Z,25.70
2023-02-14T08:10:53.053Z,24.27
2023-02-14T08:13:19.970Z,26.00
2023-02-14T08:16:04.638Z,27.70
2023-02-14T08:18:40.304Z,26.57
2023-02-14T08:21:09.802Z,31.37
2023-02-14T08:23:37.487Z,26.93
2023-02-14T08:26:04.517Z,28.10
2023-02-14T08:28:33.002Z,30.33
2023-02-14T08:31:00.102Z,28.17
2023-02-14T08:33:27.010Z,29.87
2023-02-14T08:35:53.657Z,31.47
2023-02-14T08:38:20.316Z,30.23
2023-02-14T08:40:47.574Z,30.30
2023-02-14T08:43:14.541Z,27.40
2023-02-14T08:45:41.490Z,33.57
2023-02-14T08:48:10.412Z,30.73
2023-02-14T08:50:40.485Z,40.00
2023-02-14T08:53:08.736Z,35.50
2023-02-14T08:55:36.117Z,33.37
2023-02-14T08:58:03.524Z,32.97
2023-02-14T09:00:31.162Z,30.63
2023-02-14T09:02:57.823Z,28.80
2023-02-14T09:05:25.000Z,29.63
2023-02-14T09:07:52.048Z,26.97
2023-02-14T09:10:18.862Z,33.40
2023-02-14T09:12:45.690Z,30.33
2023-02-14T09:15:12.833Z,29.93
2023-02-14T09:17:39.795Z,28.20
2023-02-14T09:20:11.564Z,26.13
2023-02-14T09:22:38.476Z,27.13
2023-02-14T09:25:05.750Z,31.67
2023-02-14T09:27:32.506Z,31.63
2023-02-14T09:29:59.213Z,30.13
2023-02-14T09:32:27.052Z,29.40
2023-02-14T09:35:12.587Z,29.87
2023-02-14T09:37:39.165Z,32.47
2023-02-14T09:40:06.243Z,29.37
2023-02-14T09:42:51.588Z,29.77
2023-02-14T09:45:29.814Z,32.13
2023-02-14T09:47:59.955Z,28.47
2023-02-14T09:50:51.153Z,28.60
2023-02-14T09:53:29.848Z,29.77
2023-02-14T09:56:29.152Z,28.27
2023-02-14T09:59:24.044Z,31.50
2023-02-14T10:02:22.775Z,30.83
2023-02-14T10:05:06.891Z,31.87
2023-02-14T10:08:09.341Z,32.67
2023-02-14T10:10:42.427Z,30.27
2023-02-14T10:13:18.034Z,31.90
2023-02-14T10:15:48.479Z,31.20
2023-02-14T10:18:27.636Z,31.37
2023-02-14T10:20:59.977Z,33.23
2023-02-14T10:23:41.176Z,32.40
2023-02-14T10:26:12.124Z,32.20
2023-02-14T10:28:49.136Z,33.43
2023-02-14T10:31:28.898Z,32.57
2023-02-14T10:34:35.878Z,30.03
2023-02-14T10:37:31.502Z,36.30
2023-02-14T10:40:17.512Z,31.70
2023-02-14T10:43:18.919Z,29.97
2023-02-14T10:46:13.459Z,30.83
2023-02-14T10:48:54.898Z,29.43
2023-02-14T10:51:39.385Z,33.23
2023-02-14T10:54:26.557Z,31.43
2023-02-14T10:57:01.100Z,28.97
2023-02-14T10:59:51.098Z,31.87
2023-02-14T11:02:24.898Z,28.87
2023-02-14T11:04:52.274Z,29.63
2023-02-14T11:07:21.469Z,32.00
2023-02-14T11:09:48.371Z,29.47
2023-02-14T11:12:39.029Z,31.53
2023-02-14T11:15:14.744Z,25.53
2023-02-14T11:17:42.464Z,31.57
2023-02-14T11:20:30.383Z,29.50
2023-02-14T11:22:57.450Z,30.70
2023-02-14T11:25:28.502Z,29.07
2023-02-14T11:28:02.711Z,26.50
2023-02-14T11:30:38.498Z,27.13
2023-02-14T11:33:06.569Z,26.83
2023-02-14T11:35:37.110Z,27.53
2023-02-14T11:38:06.719Z,28.27
2023-02-14T11:40:40.403Z,29.60
2023-02-14T11:43:15.748Z,26.47
2023-02-14T11:45:44.430Z,28.80
2023-02-14T11:48:22.347Z,31.60
2023-02-14T11:50:56.906Z,24.57
2023-02-14T11:53:44.029Z,31.87
2023-02-14T11:56:11.519Z,29.67
2023-02-14T11:58:44.945Z,31.67
2023-02-14T12:01:20.743Z,29.20
2023-02-14T12:03:50.748Z,25.33
2023-02-14T12:06:29.944Z,29.27
2023-02-14T12:09:27.811Z,26.37
2023-02-14T12:11:59.767Z,26.17
2023-02-14T12:14:31.960Z,27.10
2023-02-14T12:17:07.086Z,26.20
2023-02-14T12:20:02.625Z,24.80
2023-02-14T12:22:41.909Z,28.27
2023-02-14T12:25:19.039Z,30.73
2023-02-14T12:28:06.036Z,28.43
2023-02-14T12:30:35.064Z,23.57
2023-02-14T12:33:02.029Z,23.63
2023-02-14T12:35:46.975Z,25.07
2023-02-14T12:38:29.842Z,27.80
2023-02-14T12:41:26.622Z,26.63
2023-02-14T12:43:58.396Z,28.03
2023-02-14T12:46:40.596Z,29.77
2023-02-14T12:49:26.832Z,27.60
2023-02-14T12:52:25.898Z,25.60
2023-02-14T12:55:09.095Z,27.60
2023-02-14T12:57:44.590Z,27.70
2023-02-14T13:00:29.725Z,27.80
2023-02-14T13:03:46.746Z,24.63
2023-02-14T13:06:35.193Z,27.63
2023-02-14T13:09:26.845Z,26.50
2023-02-14T13:12:01.733Z,25.97
2023-02-14T13:15:01.173Z,24.30
2023-02-14T13:17:56.194Z,26.33
2023-02-14T13:20:38.804Z,26.13
2023-02-14T13:23:19.099Z,26.73
2023-02-14T13:25:55.471Z,24.97
2023-02-14T13:28:22.427Z,23.23
2023-02-14T13:30:49.218Z,24.13
2023-02-14T13:33:35.050Z,25.27
2023-02-14T13:36:05.730Z,26.47
2023-02-14T13:38:32.881Z,24.43
2023-02-14T13:41:01.584Z,23.27
2023-02-14T13:43:51.506Z,24.93
2023-02-14T13:46:21.618Z,26.70
2023-02-14T13:49:31.749Z,27.47
2023-02-14T13:52:06.455Z,25.47
2023-02-14T13:54:45.889Z,26.47
2023-02-14T13:57:34.025Z,30.33
2023-02-14T14:00:19.088Z,36.67
2023-02-14T14:02:53.510Z,27.13
2023-02-14T14:05:43.641Z,33.60
2023-02-14T14:08:22.735Z,26.23
2023-02-14T14:10:53.009Z,24.63
2023-02-14T14:13:41.487Z,27.50
2023-02-14T14:16:23.578Z,29.07
2023-02-14T14:19:07.661Z,27.10
2023-02-14T14:21:39.908Z,25.83
2023-02-14T14:24:28.846Z,26.33
2023-02-14T14:27:15.908Z,27.87
2023-02-14T14:30:04.807Z,26.97
2023-02-14T14:32:37.242Z,24.27
2023-02-14T14:35:11.706Z,25.37
2023-02-14T14:37:54.408Z,23.00
2023-02-14T14:40:35.334Z,27.77
2023-02-14T14:43:21.725Z,27.10
2023-02-14T14:45:51.478Z,26.33
2023-02-14T14:48:26.152Z,33.00
2023-02-14T14:50:52.753Z,28.20
2023-02-14T14:53:29.249Z,30.50
2023-02-14T14:55:56.802Z,26.83
2023-02-14T14:58:31.103Z,26.30
2023-02-14T15:00:58.218Z,28.20
2023-02-14T15:03:28.214Z,27.30
2023-02-14T15:06:17.357Z,30.67
2023-02-14T15:08:45.232Z,26.60
2023-02-14T15:11:45.689Z,26.30
2023-02-14T15:14:21.673Z,30.27
2023-02-14T15:16:57.467Z,25.07
2023-02-14T15:19:33.357Z,28.47
2023-02-14T15:22:02.056Z,24.23
2023-02-14T15:24:30.420Z,26.03
2023-02-14T15:26:57.419Z,26.67
2023-02-14T15:29:32.333Z,28.33
2023-02-14T15:32:03.090Z,26.17
2023-02-14T15:34:32.818Z,26.40
2023-02-14T15:37:05.994Z,28.03
2023-02-14T15:39:53.082Z,23.20
2023-02-14T15:42:32.796Z,25.97
2023-02-14T15:45:27.882Z,24.57
2023-02-14T15:48:04.961Z,23.60
2023-02-14T15:50:34.824Z,25.03
2023-02-14T15:53:27.597Z,26.53
2023-02-14T15:55:55.181Z,23.73
2023-02-14T15:58:26.651Z,23.03
2023-02-14T16:00:54.279Z,23.20
2023-02-14T16:03:23.895Z,24.50
2023-02-14T16:05:51.264Z,21.87
2023-02-14T16:08:31.580Z,29.10
2023-02-14T16:11:08.717Z,24.10
2023-02-14T16:13:37.750Z,25.07
2023-02-14T16:16:07.104Z,24.67
2023-02-14T16:18:41.328Z,23.57
2023-02-14T16:21:29.303Z,23.70
2023-02-14T16:24:07.930Z,24.00
2023-02-14T16:26:37.870Z,21.60
2023-02-14T16:29:05.874Z,23.97
2023-02-14T16:31:33.637Z,34.20
2023-02-14T16:34:00.359Z,22.90
2023-02-14T16:36:29.876Z,21.03
2023-02-14T16:38:57.666Z,22.47
2023-02-14T16:41:27.280Z,25.53
2023-02-14T16:43:54.827Z,25.10
2023-02-14T16:46:25.166Z,23.10
2023-02-14T16:48:52.609Z,22.00
2023-02-14T16:51:22.164Z,22.10
2023-02-14T16:53:49.719Z,23.03
2023-02-14T16:56:44.126Z,26.97
2023-02-14T16:59:10.818Z,26.57
2023-02-14T17:01:37.401Z,22.20
2023-02-14T17:04:04.712Z,23.97
2023-02-14T17:06:32.444Z,23.07
2023-02-14T17:09:04.275Z,23.37
2023-02-14T17:11:31.999Z,23.90
2023-02-14T17:13:58.604Z,25.10
2023-02-14T17:16:25.221Z,22.43
2023-02-14T17:18:52.798Z,22.20
2023-02-14T17:21:24.370Z,23.13
2023-02-14T17:23:50.986Z,20.60
2023-02-14T17:26:20.573Z,23.47
2023-02-14T17:28:47.270Z,25.00
2023-02-14T17:31:14.086Z,23.53
2023-02-14T17:33:40.782Z,20.77
2023-02-14T17:36:11.864Z,22.17
2023-02-14T17:38:39.924Z,24.40
2023-02-14T17:41:18.731Z,26.23
2023-02-14T17:43:46.153Z,26.93
2023-02-14T17:46:14.276Z,23.70
2023-02-14T17:48:42.101Z,23.33
2023-02-14T17:51:09.494Z,25.07
2023-02-14T17:53:36.360Z,25.37
2023-02-14T17:56:08.581Z,22.27
2023-02-14T17:58:36.012Z,23.43
2023-02-14T18:01:07.581Z,23.33
2023-02-14T18:03:34.564Z,24.30
2023-02-14T18:06:03.405Z,22.70
2023-02-14T18:08:32.449Z,23.47
2023-02-14T18:10:59.335Z,26.90
2023-02-14T18:13:26.415Z,25.23
2023-02-14T18:15:53.319Z,25.37
2023-02-14T18:18:20.506Z,25.50
2023-02-14T18:20:55.026Z,27.17
2023-02-14T18:23:22.331Z,21.67
2023-02-14T18:25:51.549Z,22.80
2023-02-14T18:28:21.955Z,22.80
2023-02-14T18:30:48.631Z,25.60
2023-02-14T18:33:15.733Z,25.47
2023-02-14T18:35:42.427Z,23.97
2023-02-14T18:38:09.398Z,26.03
2023-02-14T18:40:39.322Z,24.10
2023-02-14T18:43:11.810Z,22.63
2023-02-14T18:45:40.816Z,24.57
2023-02-14T18:48:17.878Z,22.07
2023-02-14T18:50:44.588Z,23.30
2023-02-14T18:53:11.265Z,22.17
2023-02-14T18:55:38.274Z,22.47
2023-02-14T18:58:07.681Z,21.00
2023-02-14T19:00:34.923Z,24.20
2023-02-14T19:03:01.558Z,23.33
2023-02-14T19:05:28.235Z,24.43
2023-02-14T19:07:55.757Z,22.27
2023-02-14T19:10:22.370Z,22.43
2023-02-14T19:12:48.977Z,21.37
2023-02-14T19:15:15.722Z,25.57
2023-02-14T19:17:42.305Z,28.73
2023-02-14T19:20:09.430Z,23.70
2023-02-14T19:22:40.956Z,23.70
2023-02-14T19:25:08.770Z,24.90
2023-02-14T19:27:35.366Z,25.70
2023-02-14T19:30:02.199Z,23.10
2023-02-14T19:32:29.106Z,23.40
2023-02-14T19:34:57.307Z,23.87
2023-02-14T19:37:24.078Z,24.83
2023-02-14T19:39:51.323Z,22.60
2023-02-14T19:42:17.937Z,24.67
2023-02-14T19:44:46.124Z,23.10
2023-02-14T19:47:28.747Z,24.00
2023-02-14T19:49:57.802Z,25.37
2023-02-14T19:52:26.631Z,30.17
2023-02-14T19:54:55.377Z,28.50
2023-02-14T19:57:22.080Z,24.40
2023-02-14T19:59:48.901Z,24.33
2023-02-14T20:02:17.931Z,27.63
2023-02-14T20:04:44.586Z,30.10
2023-02-14T20:07:11.299Z,27.40
2023-02-14T20:09:40.259Z,28.20
2023-02-14T20:12:07.256Z,27.57
2023-02-14T20:14:49.890Z,27.33
2023-02-14T20:17:17.905Z,28.70
2023-02-14T20:19:44.583Z,27.27
2023-02-14T20:22:11.170Z,27.30
2023-02-14T20:24:37.735Z,31.53
2023-02-14T20:27:04.464Z,25.97
2023-02-14T20:29:31.105Z,29.27
2023-02-14T20:32:01.343Z,29.07
2023-02-14T20:34:29.425Z,27.47
2023-02-14T20:36:56.530Z,29.27
2023-02-14T20:39:28.656Z,31.60
2023-02-14T20:41:55.239Z,30.90
2023-02-14T20:44:22.799Z,30.47
2023-02-14T20:46:51.855Z,31.50
2023-02-14T20:49:23.292Z,30.20
2023-02-14T20:51:50.771Z,33.30
2023-02-14T20:54:22.447Z,32.17
2023-02-14T20:56:50.605Z,29.50
2023-02-14T20:59:19.269Z,31.13
2023-02-14T21:01:46.093Z,29.60
2023-02-14T21:04:14.216Z,33.43
2023-02-14T21:06:40.981Z,29.70
2023-02-14T21:09:08.437Z,26.73
2023-02-14T21:11:35.125Z,30.80
2023-02-14T21:14:02.045Z,31.93
2023-02-14T21:16:30.271Z,33.80
2023-02-14T21:18:59.144Z,30.17
2023-02-14T21:21:34.628Z,30.83
2023-02-14T21:24:07.502Z,30.97
2023-02-14T21:26:34.412Z,31.90
2023-02-14T21:29:01.589Z,31.00
2023-02-14T21:31:28.399Z,27.63
2023-02-14T21:33:59.499Z,31.00
2023-02-14T21:36:29.551Z,32.90
2023-02-14T21:38:58.321Z,28.50
2023-02-14T21:41:28.328Z,31.07
2023-02-14T21:43:56.415Z,30.73
2023-02-14T21:46:27.377Z,29.77
2023-02-14T21:49:14.014Z,29.37
2023-02-14T21:51:41.268Z,29.13
2023-02-14T21:54:08.221Z,30.23
2023-02-14T21:56:35.793Z,29.20
2023-02-14T21:59:02.466Z,31.80
2023-02-14T22:01:31.899Z,32.73
2023-02-14T22:03:59.068Z,33.10
2023-02-14T22:06:27.313Z,37.27
2023-02-14T22:08:55.808Z,26.20
2023-02-14T22:11:25.501Z,24.43
2023-02-14T22:13:52.178Z,26.50
2023-02-14T22:16:20.344Z,27.13
2023-02-14T22:18:47.883Z,28.63
2023-02-14T22:21:17.784Z,28.40
2023-02-14T22:23:44.915Z,30.57
2023-02-14T22:26:18.557Z,24.63
2023-02-14T22:28:47.403Z,30.13
2023-02-14T22:31:16.417Z,27.47
2023-02-14T22:33:43.509Z,28.97
2023-02-14T22:36:10.445Z,28.93
2023-02-14T22:38:38.077Z,27.80
2023-02-14T22:41:09.936Z,29.53
2023-02-14T22:43:37.944Z,32.23
2023-02-14T22:46:06.382Z,31.53
2023-02-14T22:48:34.948Z,28.83
2023-02-14T22:51:16.985Z,29.13
2023-02-14T22:53:43.779Z,27.97
2023-02-14T22:56:22.177Z,27.53
2023-02-14T22:58:52.516Z,30.17
2023-02-14T23:01:20.841Z,29.00
2023-02-14T23:03:48.406Z,28.60
2023-02-14T23:06:15.262Z,31.33
2023-02-14T23:08:47.116Z,28.27
2023-02-14T23:11:19.918Z,29.53
2023-02-14T23:14:05.792Z,28.77
2023-02-14T23:16:51.052Z,30.27
2023-02-14T23:19:42.936Z,30.20
2023-02-14T23:22:12.475Z,28.67
2023-02-14T23:24:39.368Z,29.03
2023-02-14T23:27:06.764Z,30.17
2023-02-14T23:29:33.792Z,26.87
2023-02-14T23:32:00.532Z,30.53
2023-02-14T23:34:29.676Z,28.73
2023-02-14T23:36:56.289Z,27.73
2023-02-14T23:39:23.053Z,27.43
2023-02-14T23:41:50.107Z,28.20
2023-02-14T23:44:30.230Z,29.27
2023-02-14T23:46:59.098Z,27.70
2023-02-14T23:49:26.824Z,29.47
2023-02-14T23:51:55.162Z,28.17
2023-02-14T23:54:23.112Z,29.90
2023-02-14T23:56:50.618Z,29.47
2023-02-14T23:59:17.737Z,30.97
